sensor_id;sensor_type;location;lat;lon;timestamp;temperature;humidity
11246;DHT22;59870;50.106;8.580;2024-01-15T01:43:50;3.10;92.50
11246;DHT22;59870;50.106;8.580;2024-01-15T01:47:07;3.10;92.40
11246;DHT22;59870;50.106;8.580;2024-01-15T01:49:52;3.30;92.30
11246;DHT22;59870;50.106;8.580;2024-01-15T01:53:18;3.20;92.20
11246;DHT22;59870;50.106;8.580;2024-01-15T01:56:46;3.20;92.10
11246;DHT22;59870;50.106;8.580;2024-01-15T02:00:02;3.40;92.20
11246;DHT22;59870;50.106;8.580;2024-01-15T02:03:35;3.20;92.00
11246;DHT22;59870;50.106;8.580;2024-01-15T02:06:36;3.20;92.00
11246;DHT22;59870;50.106;8.580;2024-01-15T02:09:45;3.40;92.10
11246;DHT22;59870;50.106;8.580;2024-01-15T02:13:14;3.20;92.00
11246;DHT22;59870;50.106;8.580;2024-01-15T02:30:27;3.20;91.90
11246;DHT22;59870;50.106;8.580;2024-01-15T02:33:43;3.20;91.80
11246;DHT22;59870;50.106;8.580;2024-01-15T04:54:39;3.50;92.90
11246;DHT22;59870;50.106;8.580;2024-01-15T04:57:17;3.50;93.00
11246;DHT22;59870;50.106;8.580;2024-01-15T05:04:09;3.50;93.10
11246;DHT22;59870;50.106;8.580;2024-01-15T05:06:44;3.70;93.00
11246;DHT22;59870;50.106;8.580;2024-01-15T05:09:16;3.70;93.00
11246;DHT22;59870;50.106;8.580;2024-01-15T05:11:49;3.80;93.20
11246;DHT22;59870;50.106;8.580;2024-01-15T05:14:18;3.60;93.10
11246;DHT22;59870;50.106;8.580;2024-01-15T05:16:51;3.50;93.00
11246;DHT22;59870;50.106;8.580;2024-01-15T05:19:22;3.60;92.90
11246;DHT22;59870;50.106;8.580;2024-01-15T05:21:53;3.60;92.80
11246;DHT22;59870;50.106;8.580;2024-01-15T05:24:22;3.60;92.80
11246;DHT22;59870;50.106;8.580;2024-01-15T05:26:52;3.90;93.00
11246;DHT22;59870;50.106;8.580;2024-01-15T05:29:23;3.70;92.80
11246;DHT22;59870;50.106;8.580;2024-01-15T05:31:54;3.70;92.80
11246;DHT22;59870;50.106;8.580;2024-01-15T05:34:28;3.90;92.90
11246;DHT22;59870;50.106;8.580;2024-01-15T05:36:57;4.00;93.00
11246;DHT22;59870;50.106;8.580;2024-01-15T05:39:30;3.70;92.90
11246;DHT22;59870;50.106;8.580;2024-01-15T05:42:06;3.70;92.80
11246;DHT22;59870;50.106;8.580;2024-01-15T05:44:35;3.80;92.80
11246;DHT22;59870;50.106;8.580;2024-01-15T05:47:12;4.00;92.80
11246;DHT22;59870;50.106;8.580;2024-01-15T05:50:23;3.80;92.90
11246;DHT22;59870;50.106;8.580;2024-01-15T05:57:17;3.80;92.90
11246;DHT22;59870;50.106;8.580;2024-01-15T05:59:52;3.80;92.90
11246;DHT22;59870;50.106;8.580;2024-01-15T06:02:44;3.80;93.00
11246;DHT22;59870;50.106;8.580;2024-01-15T06:05:27;3.70;93.10
11246;DHT22;59870;50.106;8.580;2024-01-15T06:08:18;3.80;93.20
11246;DHT22;59870;50.106;8.580;2024-01-15T06:11:05;3.70;93.10
11246;DHT22;59870;50.106;8.580;2024-01-15T06:13:49;3.80;93.10
11246;DHT22;59870;50.106;8.580;2024-01-15T06:16:24;4.00;93.20
11246;DHT22;59870;50.106;8.580;2024-01-15T06:51:20;3.70;94.40
11246;DHT22;59870;50.106;8.580;2024-01-15T07:12:53;3.80;94.00
11246;DHT22;59870;50.106;8.580;2024-01-15T07:15:22;4.00;94.00
11246;DHT22;59870;50.106;8.580;2024-01-15T07:18:32;3.70;93.70
11246;DHT22;59870;50.106;8.580;2024-01-15T07:21:15;3.70;93.70
11246;DHT22;59870;50.106;8.580;2024-01-15T07:23:43;3.70;93.60
11246;DHT22;59870;50.106;8.580;2024-01-15T07:26:12;3.70;93.70
11246;DHT22;59870;50.106;8.580;2024-01-15T07:28:39;3.70;93.70
11246;DHT22;59870;50.106;8.580;2024-01-15T07:31:08;3.90;93.80
11246;DHT22;59870;50.106;8.580;2024-01-15T07:33:36;3.70;93.80
11246;DHT22;59870;50.106;8.580;2024-01-15T07:36:04;3.70;93.90
11246;DHT22;59870;50.106;8.580;2024-01-15T07:38:32;3.70;93.90
11246;DHT22;59870;50.106;8.580;2024-01-15T07:41:01;3.70;94.00
11246;DHT22;59870;50.106;8.580;2024-01-15T07:43:30;3.70;94.10
11246;DHT22;59870;50.106;8.580;2024-01-15T07:45:57;3.70;94.00
11246;DHT22;59870;50.106;8.580;2024-01-15T07:48:27;4.00;94.20
11246;DHT22;59870;50.106;8.580;2024-01-15T07:50:55;3.70;94.00
11246;DHT22;59870;50.106;8.580;2024-01-15T07:53:22;3.70;94.00
11246;DHT22;59870;50.106;8.580;2024-01-15T07:55:50;3.80;94.20
11246;DHT22;59870;50.106;8.580;2024-01-15T07:58:17;4.00;94.20
11246;DHT22;59870;50.106;8.580;2024-01-15T08:00:45;3.50;94.10
11246;DHT22;59870;50.106;8.580;2024-01-15T08:03:15;3.70;94.00
11246;DHT22;59870;50.106;8.580;2024-01-15T08:05:44;4.20;94.40
11246;DHT22;59870;50.106;8.580;2024-01-15T08:08:11;3.90;94.30
11246;DHT22;59870;50.106;8.580;2024-01-15T08:10:40;4.20;94.50
11246;DHT22;59870;50.106;8.580;2024-01-15T08:13:07;4.00;94.30
11246;DHT22;59870;50.106;8.580;2024-01-15T08:18:41;4.00;94.40
11246;DHT22;59870;50.106;8.580;2024-01-15T08:21:09;4.00;94.30
11246;DHT22;59870;50.106;8.580;2024-01-15T08:23:37;4.00;94.40
11246;DHT22;59870;50.106;8.580;2024-01-15T08:26:07;4.00;94.40
11246;DHT22;59870;50.106;8.580;2024-01-15T08:28:44;4.00;94.40
11246;DHT22;59870;50.106;8.580;2024-01-15T08:31:24;4.10;94.40
11246;DHT22;59870;50.106;8.580;2024-01-15T08:34:05;4.10;94.30
11246;DHT22;59870;50.106;8.580;2024-01-15T08:37:00;4.10;94.20
11246;DHT22;59870;50.106;8.580;2024-01-15T08:39:49;3.90;94.00
11246;DHT22;59870;50.106;8.580;2024-01-15T08:42:25;4.20;93.90
11246;DHT22;59870;50.106;8.580;2024-01-15T08:44:55;4.20;93.90
11246;DHT22;59870;50.106;8.580;2024-01-15T08:47:46;4.20;93.70
11246;DHT22;59870;50.106;8.580;2024-01-15T08:50:17;4.30;93.90
11246;DHT22;59870;50.106;8.580;2024-01-15T08:52:50;4.50;93.70
11246;DHT22;59870;50.106;8.580;2024-01-15T08:55:31;4.30;93.70
11246;DHT22;59870;50.106;8.580;2024-01-15T08:57:58;4.40;93.50
11246;DHT22;59870;50.106;8.580;2024-01-15T09:00:26;4.40;93.60
11246;DHT22;59870;50.106;8.580;2024-01-15T10:28:32;7.60;87.30
11246;DHT22;59870;50.106;8.580;2024-01-15T11:46:16;7.00;90.00
11246;DHT22;59870;50.106;8.580;2024-01-15T11:48:47;7.00;90.10
11246;DHT22;59870;50.106;8.580;2024-01-15T11:51:21;6.90;90.20
11246;DHT22;59870;50.106;8.580;2024-01-15T11:53:52;7.20;90.20
11246;DHT22;59870;50.106;8.580;2024-01-15T11:56:23;7.20;90.20
11246;DHT22;59870;50.106;8.580;2024-01-15T11:58:51;7.00;90.10
11246;DHT22;59870;50.106;8.580;2024-01-15T12:48:45;7.10;90.40
11246;DHT22;59870;50.106;8.580;2024-01-15T12:51:15;7.20;90.20
11246;DHT22;59870;50.106;8.580;2024-01-15T12:53:43;7.40;90.20
11246;DHT22;59870;50.106;8.580;2024-01-15T12:56:10;7.20;90.00
11246;DHT22;59870;50.106;8.580;2024-01-15T12:58:39;6.90;89.20
11246;DHT22;59870;50.106;8.580;2024-01-15T13:01:06;7.10;89.10
11246;DHT22;59870;50.106;8.580;2024-01-15T13:03:35;7.50;89.60
11246;DHT22;59870;50.106;8.580;2024-01-15T13:06:02;7.40;89.30
11246;DHT22;59870;50.106;8.580;2024-01-15T13:08:33;7.30;88.70
11246;DHT22;59870;50.106;8.580;2024-01-15T13:11:00;7.50;89.00
11246;DHT22;59870;50.106;8.580;2024-01-15T13:13:28;7.60;89.20
11246;DHT22;59870;50.106;8.580;2024-01-15T13:15:56;7.30;89.20
11246;DHT22;59870;50.106;8.580;2024-01-15T13:18:32;7.60;89.20
11246;DHT22;59870;50.106;8.580;2024-01-15T13:21:02;7.50;88.40
11246;DHT22;59870;50.106;8.580;2024-01-15T13:23:30;7.60;88.70
11246;DHT22;59870;50.106;8.580;2024-01-15T13:25:58;7.50;88.80
11246;DHT22;59870;50.106;8.580;2024-01-15T13:28:25;7.50;88.70
11246;DHT22;59870;50.106;8.580;2024-01-15T13:30:54;7.50;89.10
11246;DHT22;59870;50.106;8.580;2024-01-15T13:33:47;7.50;89.20
11246;DHT22;59870;50.106;8.580;2024-01-15T13:36:21;7.00;88.70
11246;DHT22;59870;50.106;8.580;2024-01-15T13:39:24;7.50;89.30
11246;DHT22;59870;50.106;8.580;2024-01-15T13:42:16;7.60;89.30
11246;DHT22;59870;50.106;8.580;2024-01-15T13:44:48;7.60;89.70
11246;DHT22;59870;50.106;8.580;2024-01-15T13:47:36;7.50;89.50
11246;DHT22;59870;50.106;8.580;2024-01-15T13:51:07;7.60;89.70
11246;DHT22;59870;50.106;8.580;2024-01-15T13:53:46;7.20;89.30
11246;DHT22;59870;50.106;8.580;2024-01-15T13:56:18;7.40;89.20
11246;DHT22;59870;50.106;8.580;2024-01-15T13:58:47;7.60;89.50
11246;DHT22;59870;50.106;8.580;2024-01-15T14:01:16;7.40;89.20
11246;DHT22;59870;50.106;8.580;2024-01-15T14:03:45;7.70;89.20
11246;DHT22;59870;50.106;8.580;2024-01-15T14:06:13;7.60;89.20
11246;DHT22;59870;50.106;8.580;2024-01-15T14:08:41;7.60;89.30
11246;DHT22;59870;50.106;8.580;2024-01-15T14:11:09;7.60;89.30
11246;DHT22;59870;50.106;8.580;2024-01-15T14:13:38;7.50;90.20
11246;DHT22;59870;50.106;8.580;2024-01-15T14:16:06;7.50;89.70
11246;DHT22;59870;50.106;8.580;2024-01-15T14:18:40;7.30;89.40
11246;DHT22;59870;50.106;8.580;2024-01-15T14:21:14;7.30;88.90
11246;DHT22;59870;50.106;8.580;2024-01-15T14:23:43;7.50;89.10
11246;DHT22;59870;50.106;8.580;2024-01-15T14:26:11;7.50;88.90
11246;DHT22;59870;50.106;8.580;2024-01-15T14:28:38;7.50;89.20
11246;DHT22;59870;50.106;8.580;2024-01-15T14:31:06;7.50;89.20
11246;DHT22;59870;50.106;8.580;2024-01-15T14:33:34;7.30;89.00
11246;DHT22;59870;50.106;8.580;2024-01-15T14:36:06;7.00;88.80
11246;DHT22;59870;50.106;8.580;2024-01-15T14:38:35;7.20;89.40
11246;DHT22;59870;50.106;8.580;2024-01-15T14:41:02;7.20;89.80
11246;DHT22;59870;50.106;8.580;2024-01-15T14:43:33;6.80;89.40
11246;DHT22;59870;50.106;8.580;2024-01-15T14:46:02;7.30;89.50
11246;DHT22;59870;50.106;8.580;2024-01-15T14:48:30;7.10;89.10
11246;DHT22;59870;50.106;8.580;2024-01-15T14:51:01;7.20;89.40
11246;DHT22;59870;50.106;8.580;2024-01-15T14:53:30;6.90;89.20
11246;DHT22;59870;50.106;8.580;2024-01-15T14:59:43;6.70;89.40
11246;DHT22;59870;50.106;8.580;2024-01-15T15:02:22;6.80;89.90
11246;DHT22;59870;50.106;8.580;2024-01-15T15:04:56;6.80;90.00
11246;DHT22;59870;50.106;8.580;2024-01-15T15:07:34;6.80;89.70
11246;DHT22;59870;50.106;8.580;2024-01-15T15:10:10;7.00;89.60
11246;DHT22;59870;50.106;8.580;2024-01-15T15:12:46;7.10;89.80
11246;DHT22;59870;50.106;8.580;2024-01-15T15:15:30;6.80;89.70
11246;DHT22;59870;50.106;8.580;2024-01-15T15:18:32;7.00;89.70
11246;DHT22;59870;50.106;8.580;2024-01-15T18:46:55;6.00;90.80
11246;DHT22;59870;50.106;8.580;2024-01-15T19:00:52;6.10;91.20
11246;DHT22;59870;50.106;8.580;2024-01-15T19:04:45;6.10;91.00
11246;DHT22;59870;50.106;8.580;2024-01-15T19:07:50;6.10;90.90
11246;DHT22;59870;50.106;8.580;2024-01-15T19:12:02;6.30;91.10
11246;DHT22;59870;50.106;8.580;2024-01-15T19:15:16;6.30;91.20
11246;DHT22;59870;50.106;8.580;2024-01-15T19:19:16;6.10;91.30
